Terminal Aerodrome Forecast
Issued by NWS

Home | Current Version | Previous Version | Graphics & Text | Print | Product List | Glossary On
Versions: 1 2 3 4 5 6 7 8 9 10 11 12 13 14 15 16 17 18 19
000
FTUS43 KMPX 312320
TAFAXN
TAF
KAXN 312320Z 0100/0124 23008KT P6SM FEW050 SCT200
     FM010400 25004KT P6SM SCT090 BKN250
     FM010800 VRB04KT P6SM SCT090 BKN200
     FM011100 13004KT P6SM BKN250
     FM011500 18008KT P6SM SCT250=

USA.gov is the U.S. government's official web portal to all federal, state and local government web resources and services.